KMLU/MLU METAR and TAF weather

Enter ICAO airport designator
Station Type Date Time Source
KMLU METAR 2020/08/15 15:53 UTC NOAA

KMLU 151553Z 02004KT 10SM BKN021 32/26 A2998 RMK AO2 SLP149 T03220256


Station Type Date Time Source
KMLU Decoded METAR 2020/08/15 15:53 UTC NOAA

MONROE REGIONAL AIRPORT, LA, United States (KMLU) 32-31N 092-02W 29M
Aug 15, 2020 - 11:53 AM EDT / 2020.08.15 1553 UTC
Wind: from the NNE (020 degrees) at 5 MPH (4 KT):0
Visibility: 10 mile(s):0
Sky conditions: mostly cloudy
Temperature: 90.0 F (32.2 C)
Heat index: 104.5 F (40.3 C):1
Dew Point: 78.1 F (25.6 C)
Relative Humidity: 68%
Pressure (altimeter): 29.98 in. Hg (1015 hPa)
ob: KMLU 151553Z 02004KT 10SM BKN021 32/26 A2998 RMK AO2 SLP149 T03220256
cycle: 16

Station Type Date Time Source
KMLU TAF 2020/08/15 12:24 UTC NOAA

TAF KMLU 151121Z 1512/1612 VRB03KT P6SM SCT045 SCT080 SCT100
TEMPO 1512/1513 3SM BR
FM151500 VRB05KT P6SM SCT080 SCT250
FM152000 VRB05KT P6SM SCT050 SCT250
FM160000 VRB03KT P6SM FEW050 SCT250

Example: see airport list